createdAt,value
2023-05-10T00:00:48.206Z,100956.03
2023-05-10T00:03:15.512Z,100955.28
2023-05-10T00:05:42.761Z,100953.75
2023-05-10T00:08:09.672Z,100953.84
2023-05-10T00:10:37.331Z,100947.81
2023-05-10T00:13:04.348Z,100955.75
2023-05-10T00:15:35.700Z,100956.59
2023-05-10T00:18:02.972Z,100957.41
2023-05-10T00:20:29.939Z,100959.91
2023-05-10T00:22:57.095Z,100970.34
2023-05-10T00:25:24.329Z,100967.03
2023-05-10T00:27:51.607Z,100952.72
2023-05-10T00:30:19.336Z,100967.59
2023-05-10T00:32:46.447Z,100965.19
2023-05-10T00:35:13.932Z,100959.97
2023-05-10T00:37:41.373Z,100966.00
2023-05-10T00:40:09.698Z,100961.66
2023-05-10T00:42:37.081Z,100966.00
2023-05-10T00:45:05.529Z,100957.47
2023-05-10T00:47:32.839Z,100964.25
2023-05-10T00:50:03.056Z,100966.00
2023-05-10T00:52:31.711Z,100974.72
2023-05-10T00:54:59.882Z,100970.41
2023-05-10T00:57:27.003Z,100969.47
2023-05-10T00:59:54.638Z,100961.38
2023-05-10T01:02:21.729Z,100963.13
2023-05-10T01:04:48.833Z,100956.16
2023-05-10T01:07:16.056Z,100956.00
2023-05-10T01:09:43.757Z,100962.91
2023-05-10T01:12:12.504Z,100959.38
2023-05-10T01:14:39.844Z,100968.72
2023-05-10T01:17:08.753Z,100945.06
2023-05-10T01:19:38.067Z,100955.66
2023-05-10T01:22:57.361Z,100961.66
2023-05-10T01:25:45.352Z,100965.19
2023-05-10T01:29:00.438Z,100963.41
2023-05-10T01:31:36.916Z,100963.50
2023-05-10T01:34:09.652Z,100965.41
2023-05-10T01:36:43.881Z,100960.28
2023-05-10T01:39:16.957Z,100960.41
2023-05-10T01:42:07.276Z,100959.69
2023-05-10T01:44:43.985Z,100960.41
2023-05-10T01:47:12.249Z,100954.47
2023-05-10T01:49:51.102Z,100966.44
2023-05-10T01:52:21.269Z,100958.50
2023-05-10T01:55:00.494Z,100962.69
2023-05-10T01:57:33.999Z,100965.31
2023-05-10T02:00:04.594Z,100960.06
2023-05-10T02:02:45.892Z,100941.78
2023-05-10T02:05:16.406Z,100945.13
2023-05-10T02:07:44.059Z,100948.47
2023-05-10T02:10:12.637Z,100946.47
2023-05-10T02:12:43.563Z,100942.16
2023-05-10T02:15:14.366Z,100948.16
2023-05-10T02:17:43.651Z,100945.41
2023-05-10T02:20:12.654Z,100941.72
2023-05-10T02:22:41.394Z,100944.22
2023-05-10T02:25:10.233Z,100941.50
2023-05-10T02:27:38.383Z,100947.34
2023-05-10T02:30:08.048Z,100943.78
2023-05-10T02:32:36.512Z,100946.88
2023-05-10T02:35:04.941Z,100937.28
2023-05-10T02:37:33.424Z,100942.06
2023-05-10T02:40:01.529Z,100943.72
2023-05-10T02:42:32.469Z,100942.53
2023-05-10T02:45:02.301Z,100929.25
2023-05-10T02:47:31.580Z,100942.81
2023-05-10T02:49:58.985Z,100939.97
2023-05-10T02:52:34.592Z,100933.56
2023-05-10T02:55:08.485Z,100931.66
2023-05-10T02:57:39.845Z,100933.94
2023-05-10T03:00:07.981Z,100938.81
2023-05-10T03:02:35.126Z,100935.97
2023-05-10T03:05:02.129Z,100937.38
2023-05-10T03:07:32.453Z,100931.00
2023-05-10T03:10:05.527Z,100927.91
2023-05-10T03:12:37.085Z,100929.94
2023-05-10T03:15:06.565Z,100932.91
2023-05-10T03:18:10.688Z,100924.72
2023-05-10T03:20:44.372Z,100928.63
2023-05-10T03:23:51.769Z,100934.38
2023-05-10T03:26:24.886Z,100928.66
2023-05-10T03:28:53.831Z,100929.16
2023-05-10T03:31:21.085Z,100929.84
2023-05-10T03:33:52.393Z,100927.00
2023-05-10T03:36:24.468Z,100927.72
2023-05-10T03:38:51.672Z,100934.63
2023-05-10T03:41:18.835Z,100930.56
2023-05-10T03:43:45.813Z,100926.75
2023-05-10T03:46:12.782Z,100926.97
2023-05-10T03:48:40.041Z,100922.22
2023-05-10T03:51:07.593Z,100922.69
2023-05-10T03:53:34.547Z,100926.47
2023-05-10T03:56:02.157Z,100924.31
2023-05-10T03:58:29.211Z,100921.22
2023-05-10T04:00:56.391Z,100917.50
2023-05-10T04:03:24.393Z,100921.44
2023-05-10T04:06:03.567Z,100922.56
2023-05-10T04:08:30.820Z,100918.00
2023-05-10T04:11:09.117Z,100918.59
2023-05-10T04:13:37.942Z,100917.13
2023-05-10T04:16:05.914Z,100919.84
2023-05-10T04:18:33.515Z,100911.72
2023-05-10T04:21:03.961Z,100914.41
2023-05-10T04:23:32.687Z,100912.53
2023-05-10T04:26:04.538Z,100917.72
2023-05-10T04:28:34.682Z,100918.72
2023-05-10T04:31:03.695Z,100915.47
2023-05-10T04:33:31.765Z,100913.72
2023-05-10T04:35:58.899Z,100914.19
2023-05-10T04:38:27.045Z,100911.22
2023-05-10T04:40:55.551Z,100913.72
2023-05-10T04:43:22.513Z,100902.84
2023-05-10T04:45:49.485Z,100899.97
2023-05-10T04:48:16.431Z,100889.19
2023-05-10T04:50:43.393Z,100899.59
2023-05-10T04:53:10.300Z,100898.63
2023-05-10T04:55:37.367Z,100898.09
2023-05-10T04:58:04.275Z,100894.38
2023-05-10T05:00:31.233Z,100894.22
2023-05-10T05:02:58.239Z,100885.94
2023-05-10T05:05:25.462Z,100895.72
2023-05-10T05:07:52.468Z,100886.13
2023-05-10T05:10:22.768Z,100892.34
2023-05-10T05:12:50.976Z,100889.66
2023-05-10T05:15:19.465Z,100891.97
2023-05-10T05:17:46.583Z,100897.84
2023-05-10T05:20:14.291Z,100879.97
2023-05-10T05:22:42.099Z,100889.16
2023-05-10T05:25:11.091Z,100875.59
2023-05-10T05:27:37.961Z,100878.56
2023-05-10T05:30:05.827Z,100878.97
2023-05-10T05:32:32.794Z,100877.06
2023-05-10T05:35:00.459Z,100875.50
2023-05-10T05:37:27.732Z,100866.59
2023-05-10T05:39:56.033Z,100866.91
2023-05-10T05:42:23.100Z,100863.66
2023-05-10T05:44:50.934Z,100865.16
2023-05-10T05:47:20.971Z,100871.91
2023-05-10T05:49:49.061Z,100857.25
2023-05-10T05:52:19.504Z,100855.31
2023-05-10T05:54:46.720Z,100861.28
2023-05-10T05:57:15.480Z,100861.78
2023-05-10T05:59:45.390Z,100859.19
2023-05-10T06:02:14.658Z,100864.81
2023-05-10T06:04:44.423Z,100852.06
2023-05-10T06:07:11.966Z,100860.63
2023-05-10T06:09:40.408Z,100830.72
2023-05-10T06:12:07.350Z,100853.09
2023-05-10T06:14:34.311Z,100849.34
2023-05-10T06:17:01.804Z,100856.16
2023-05-10T06:19:29.874Z,100851.06
2023-05-10T06:21:57.244Z,100849.72
2023-05-10T06:24:24.279Z,100854.31
2023-05-10T06:26:51.672Z,100851.31
2023-05-10T06:29:18.668Z,100852.84
2023-05-10T06:31:45.719Z,100837.03
2023-05-10T06:34:13.715Z,100848.75
2023-05-10T06:36:41.096Z,100840.84
2023-05-10T06:39:08.761Z,100846.78
2023-05-10T06:41:35.859Z,100849.44
2023-05-10T06:44:03.366Z,100844.94
2023-05-10T06:46:33.670Z,100842.78
2023-05-10T06:49:01.676Z,100838.13
2023-05-10T06:51:29.386Z,100837.81
2023-05-10T06:53:56.731Z,100844.06
2023-05-10T06:56:23.922Z,100832.19
2023-05-10T06:58:50.912Z,100830.50
2023-05-10T07:01:19.202Z,100832.91
2023-05-10T07:03:46.495Z,100831.44
2023-05-10T07:06:29.389Z,100828.00
2023-05-10T07:08:56.853Z,100831.69
2023-05-10T07:11:24.142Z,100833.34
2023-05-10T07:13:51.139Z,100825.81
2023-05-10T07:16:18.207Z,100824.56
2023-05-10T07:18:49.853Z,100818.03
2023-05-10T07:21:16.852Z,100812.59
2023-05-10T07:23:45.137Z,100817.66
2023-05-10T07:26:12.739Z,100812.41
2023-05-10T07:28:40.236Z,100806.59
2023-05-10T07:31:07.244Z,100806.41
2023-05-10T07:33:34.281Z,100813.00
2023-05-10T07:36:01.494Z,100815.69
2023-05-10T07:38:28.580Z,100806.06
2023-05-10T07:40:55.625Z,100801.16
2023-05-10T07:43:22.656Z,100808.78
2023-05-10T07:45:49.935Z,100812.44
2023-05-10T07:48:16.931Z,100808.69
2023-05-10T07:50:43.872Z,100802.84
2023-05-10T07:53:11.052Z,100800.63
2023-05-10T07:55:37.995Z,100803.72
2023-05-10T07:58:05.099Z,100805.75
2023-05-10T08:00:32.129Z,100805.81
2023-05-10T08:02:59.518Z,100795.25
2023-05-10T08:05:26.753Z,100792.81
2023-05-10T08:07:53.919Z,100794.59
2023-05-10T08:10:21.093Z,100789.28
2023-05-10T08:12:48.064Z,100789.59
2023-05-10T08:15:15.288Z,100786.75
2023-05-10T08:17:42.772Z,100771.09
2023-05-10T08:20:10.406Z,100770.06
2023-05-10T08:22:37.542Z,100769.88
2023-05-10T08:25:04.717Z,100772.69
2023-05-10T08:27:31.835Z,100769.59
2023-05-10T08:29:58.708Z,100770.59
2023-05-10T08:32:25.790Z,100762.66
2023-05-10T08:34:52.904Z,100762.97
2023-05-10T08:37:21.083Z,100758.03
2023-05-10T08:39:50.237Z,100761.03
2023-05-10T08:42:22.829Z,100752.84
2023-05-10T08:44:50.413Z,100755.09
2023-05-10T08:47:19.404Z,100756.75
2023-05-10T08:49:52.078Z,100749.88
2023-05-10T08:52:19.379Z,100745.31
2023-05-10T08:54:46.308Z,100741.97
2023-05-10T08:57:13.255Z,100740.97
2023-05-10T08:59:51.837Z,100743.16
2023-05-10T09:02:22.215Z,100743.91
2023-05-10T09:04:50.258Z,100739.06
2023-05-10T09:07:17.805Z,100735.72
2023-05-10T09:09:45.508Z,100728.06
2023-05-10T09:12:14.140Z,100729.44
2023-05-10T09:14:41.372Z,100734.75
2023-05-10T09:17:08.442Z,100731.13
2023-05-10T09:19:35.657Z,100722.81
2023-05-10T09:22:03.443Z,100726.00
2023-05-10T09:24:31.336Z,100728.78
2023-05-10T09:26:59.551Z,100722.91
2023-05-10T09:29:26.604Z,100724.16
2023-05-10T09:31:55.738Z,100709.16
2023-05-10T09:34:30.992Z,100706.88
2023-05-10T09:37:04.608Z,100695.34
2023-05-10T09:39:36.968Z,100695.75
2023-05-10T09:42:07.402Z,100689.41
2023-05-10T09:44:35.187Z,100696.47
2023-05-10T09:47:05.410Z,100692.69
2023-05-10T09:49:32.691Z,100689.97
2023-05-10T09:52:04.545Z,100691.63
2023-05-10T09:54:32.073Z,100679.91
2023-05-10T09:56:58.924Z,100675.63
2023-05-10T09:59:29.976Z,100676.47
2023-05-10T10:01:59.176Z,100672.22
2023-05-10T10:04:27.377Z,100654.81
2023-05-10T10:07:05.145Z,100660.84
2023-05-10T10:09:33.123Z,100670.50
2023-05-10T10:12:04.171Z,100668.72
2023-05-10T10:14:31.849Z,100661.56
2023-05-10T10:19:34.753Z,100657.75
2023-05-10T10:22:01.874Z,100659.09
2023-05-10T10:24:28.883Z,100652.47
2023-05-10T10:27:05.459Z,100661.38
2023-05-10T10:29:49.105Z,100654.47
2023-05-10T10:32:34.171Z,100660.91
2023-05-10T10:35:01.468Z,100651.31
2023-05-10T10:37:45.386Z,100640.63
2023-05-10T10:40:27.980Z,100644.28
2023-05-10T10:42:56.265Z,100652.91
2023-05-10T10:45:23.795Z,100637.28
2023-05-10T10:48:14.646Z,100644.00
2023-05-10T10:50:46.767Z,100640.97
2023-05-10T10:53:14.244Z,100634.66
2023-05-10T10:55:49.182Z,100642.41
2023-05-10T10:58:32.014Z,100637.25
2023-05-10T11:01:19.213Z,100630.19
2023-05-10T11:04:04.286Z,100626.69
2023-05-10T11:06:35.371Z,100631.84
2023-05-10T11:09:10.161Z,100625.31
2023-05-10T11:11:49.283Z,100624.84
2023-05-10T11:14:21.494Z,100618.47
2023-05-10T11:16:48.434Z,100621.00
2023-05-10T11:19:17.619Z,100616.50
2023-05-10T11:21:48.976Z,100614.13
2023-05-10T11:24:24.298Z,100612.25
2023-05-10T11:26:52.917Z,100608.63
2023-05-10T11:29:20.221Z,100608.19
2023-05-10T11:31:48.597Z,100618.19
2023-05-10T11:34:34.666Z,100605.56
2023-05-10T11:37:02.670Z,100604.44
2023-05-10T11:39:31.326Z,100604.94
2023-05-10T11:41:59.425Z,100609.16
2023-05-10T11:44:33.385Z,100603.22
2023-05-10T11:47:03.504Z,100594.81
2023-05-10T11:49:30.616Z,100591.16
2023-05-10T11:52:08.062Z,100595.03
2023-05-10T11:54:37.874Z,100593.72
2023-05-10T11:57:05.326Z,100592.28
2023-05-10T11:59:32.234Z,100588.38
2023-05-10T12:01:59.246Z,100587.00
2023-05-10T12:04:26.834Z,100584.94
2023-05-10T12:06:54.176Z,100576.75
2023-05-10T12:09:35.330Z,100572.41
2023-05-10T12:12:07.020Z,100581.19
2023-05-10T12:14:36.459Z,100575.06
2023-05-10T12:17:03.462Z,100575.06
2023-05-10T12:19:38.600Z,100566.66
2023-05-10T12:22:07.001Z,100575.91
2023-05-10T12:24:39.354Z,100557.81
2023-05-10T12:30:05.570Z,100562.69
2023-05-10T12:32:45.437Z,100559.34
2023-05-10T12:35:12.823Z,100555.88
2023-05-10T12:37:40.320Z,100555.66
2023-05-10T12:40:09.194Z,100556.44
2023-05-10T12:42:37.189Z,100552.72
2023-05-10T12:45:05.538Z,100558.03
2023-05-10T12:47:35.917Z,100559.28
2023-05-10T12:50:03.814Z,100557.69
2023-05-10T12:52:33.230Z,100563.13
2023-05-10T12:55:04.211Z,100559.19
2023-05-10T12:57:36.815Z,100561.44
2023-05-10T13:00:06.124Z,100556.28
2023-05-10T13:02:33.263Z,100542.25
2023-05-10T13:05:00.341Z,100552.53
2023-05-10T13:07:27.333Z,100556.00
2023-05-10T13:09:54.178Z,100552.34
2023-05-10T13:12:21.182Z,100548.13
2023-05-10T13:14:48.250Z,100555.06
2023-05-10T13:17:15.186Z,100542.06
2023-05-10T13:19:42.113Z,100542.97
2023-05-10T13:22:09.036Z,100541.78
2023-05-10T13:24:36.106Z,100544.50
2023-05-10T13:27:03.022Z,100547.34
2023-05-10T13:29:29.976Z,100541.00
2023-05-10T13:31:57.326Z,100535.56
2023-05-10T13:34:25.323Z,100532.75
2023-05-10T13:36:53.976Z,100536.47
2023-05-10T13:39:21.769Z,100533.28
2023-05-10T13:41:48.717Z,100537.47
2023-05-10T13:44:16.227Z,100534.06
2023-05-10T13:46:43.490Z,100530.38
2023-05-10T13:49:11.021Z,100528.63
2023-05-10T13:51:37.992Z,100529.00
2023-05-10T13:54:04.914Z,100527.34
2023-05-10T13:56:31.867Z,100530.00
2023-05-10T13:58:59.493Z,100528.38
2023-05-10T14:01:26.545Z,100523.47
2023-05-10T14:03:53.494Z,100534.06
2023-05-10T14:06:20.496Z,100528.13
2023-05-10T14:08:47.417Z,100525.88
2023-05-10T14:11:14.725Z,100523.78
2023-05-10T14:13:42.128Z,100520.41
2023-05-10T14:16:10.533Z,100524.47
2023-05-10T14:18:37.525Z,100525.56
2023-05-10T14:21:07.188Z,100527.56
2023-05-10T14:23:34.126Z,100520.63
2023-05-10T14:26:01.022Z,100517.69
2023-05-10T14:28:28.039Z,100510.34
2023-05-10T14:30:55.121Z,100530.72
2023-05-10T14:33:22.149Z,100519.03
2023-05-10T14:35:49.259Z,100514.72
2023-05-10T14:38:16.296Z,100519.56
2023-05-10T14:40:44.119Z,100514.63
2023-05-10T14:43:11.061Z,100517.81
2023-05-10T14:45:38.128Z,100508.78
2023-05-10T14:48:05.991Z,100514.19
2023-05-10T14:50:36.973Z,100509.59
2023-05-10T14:53:04.606Z,100510.16
2023-05-10T14:55:31.580Z,100509.72
2023-05-10T14:57:59.386Z,100511.06
2023-05-10T15:00:26.706Z,100511.25
2023-05-10T15:02:54.329Z,100503.03
2023-05-10T15:05:21.855Z,100506.69
2023-05-10T15:07:49.628Z,100500.47
2023-05-10T15:10:16.753Z,100501.22
2023-05-10T15:12:43.733Z,100505.47
2023-05-10T15:15:11.071Z,100497.53
2023-05-10T15:17:38.252Z,100505.84
2023-05-10T15:20:05.859Z,100490.22
2023-05-10T15:22:34.372Z,100504.28
2023-05-10T15:25:01.494Z,100504.63
2023-05-10T15:27:29.164Z,100502.38
2023-05-10T15:29:56.349Z,100495.75
2023-05-10T15:32:23.353Z,100500.09
2023-05-10T15:34:50.276Z,100500.28
2023-05-10T15:37:17.175Z,100503.47
2023-05-10T15:39:45.466Z,100498.91
2023-05-10T15:42:13.346Z,100499.91
2023-05-10T15:44:40.274Z,100499.59
2023-05-10T15:47:07.284Z,100494.84
2023-05-10T15:49:34.834Z,100495.56
2023-05-10T15:52:02.103Z,100491.94
2023-05-10T15:54:29.135Z,100493.50
2023-05-10T15:56:56.456Z,100494.03
2023-05-10T15:59:23.423Z,100484.97
2023-05-10T16:01:51.148Z,100495.88
2023-05-10T16:04:18.412Z,100489.66
2023-05-10T16:06:45.981Z,100493.00
2023-05-10T16:09:12.980Z,100493.72
2023-05-10T16:11:40.342Z,100493.41
2023-05-10T16:14:07.520Z,100487.97
2023-05-10T16:16:35.815Z,100493.78
2023-05-10T16:19:04.025Z,100489.53
2023-05-10T16:21:34.378Z,100496.13
2023-05-10T16:24:04.005Z,100492.53
2023-05-10T16:26:31.012Z,100490.59
2023-05-10T16:28:58.067Z,100487.78
2023-05-10T16:31:25.137Z,100482.38
2023-05-10T16:33:52.143Z,100491.63
2023-05-10T16:36:19.218Z,100480.09
2023-05-10T16:38:46.146Z,100493.66
2023-05-10T16:41:13.189Z,100485.75
2023-05-10T16:43:40.415Z,100495.84
2023-05-10T16:46:13.483Z,100485.44
2023-05-10T16:48:40.616Z,100494.38
2023-05-10T16:51:07.988Z,100490.09
2023-05-10T16:53:35.289Z,100493.88
2023-05-10T16:56:04.742Z,100493.72
2023-05-10T16:58:36.967Z,100495.19
2023-05-10T17:01:05.989Z,100482.47
2023-05-10T17:03:34.983Z,100481.34
2023-05-10T17:06:03.442Z,100462.38
2023-05-10T17:08:33.037Z,100498.00
2023-05-10T17:11:05.237Z,100484.13
2023-05-10T17:13:33.372Z,100479.84
2023-05-10T17:16:04.484Z,100477.19
2023-05-10T17:18:31.793Z,100497.97
2023-05-10T17:20:58.754Z,100504.25
2023-05-10T17:23:25.759Z,100507.53
2023-05-10T17:25:53.216Z,100515.13
2023-05-10T17:28:20.696Z,100503.56
2023-05-10T17:30:47.589Z,100509.16
2023-05-10T17:33:14.602Z,100516.41
2023-05-10T17:35:47.350Z,100517.72
2023-05-10T17:38:14.541Z,100518.19
2023-05-10T17:40:42.180Z,100518.34
2023-05-10T17:43:09.331Z,100518.84
2023-05-10T17:45:36.731Z,100516.34
2023-05-10T17:48:04.305Z,100523.59
2023-05-10T17:50:32.730Z,100528.38
2023-05-10T17:52:59.590Z,100532.16
2023-05-10T17:55:27.246Z,100527.19
2023-05-10T17:57:54.280Z,100535.25
2023-05-10T18:00:21.315Z,100533.94
2023-05-10T18:02:48.291Z,100536.06
2023-05-10T18:05:17.034Z,100540.81
2023-05-10T18:07:44.671Z,100534.25
2023-05-10T18:10:11.850Z,100539.66
2023-05-10T18:12:39.019Z,100536.50
2023-05-10T18:15:06.441Z,100537.66
2023-05-10T18:17:35.088Z,100535.19
2023-05-10T18:20:02.409Z,100537.97
2023-05-10T18:22:30.073Z,100534.66
2023-05-10T18:24:56.933Z,100534.94
2023-05-10T18:27:23.894Z,100539.38
2023-05-10T18:29:51.822Z,100538.88
2023-05-10T18:32:18.799Z,100550.84
2023-05-10T18:34:46.000Z,100547.03
2023-05-10T18:37:13.025Z,100539.31
2023-05-10T18:39:40.129Z,100538.69
2023-05-10T18:42:07.938Z,100533.91
2023-05-10T18:44:37.848Z,100536.91
2023-05-10T18:47:04.936Z,100529.38
2023-05-10T18:49:32.257Z,100530.72
2023-05-10T18:51:59.295Z,100530.56
2023-05-10T18:54:26.927Z,100528.75
2023-05-10T18:56:53.898Z,100532.06
2023-05-10T18:59:20.938Z,100534.72
2023-05-10T19:01:55.717Z,100536.66
2023-05-10T19:04:27.718Z,100536.00
2023-05-10T19:06:56.058Z,100531.84
2023-05-10T19:09:23.834Z,100530.50
2023-05-10T19:11:51.972Z,100528.34
2023-05-10T19:14:19.125Z,100528.34
2023-05-10T19:16:49.073Z,100534.72
2023-05-10T19:19:16.232Z,100535.03
2023-05-10T19:21:43.374Z,100537.16
2023-05-10T19:24:11.986Z,100540.13
2023-05-10T19:26:38.900Z,100536.81
2023-05-10T19:29:06.218Z,100542.41
2023-05-10T19:31:34.709Z,100532.19
2023-05-10T19:34:03.025Z,100535.13
2023-05-10T19:36:30.049Z,100533.09
2023-05-10T19:38:57.091Z,100545.59
2023-05-10T19:41:24.202Z,100539.94
2023-05-10T19:43:52.828Z,100539.13
2023-05-10T19:46:20.344Z,100550.13
2023-05-10T19:48:47.631Z,100550.44
2023-05-10T19:51:15.021Z,100545.47
2023-05-10T19:53:45.137Z,100555.03
2023-05-10T19:56:13.246Z,100540.50
2023-05-10T19:58:40.578Z,100548.66
2023-05-10T20:01:08.330Z,100548.50
2023-05-10T20:03:36.345Z,100545.84
2023-05-10T20:06:04.306Z,100544.19
2023-05-10T20:08:31.634Z,100553.75
2023-05-10T20:11:00.781Z,100541.56
2023-05-10T20:13:27.911Z,100534.78
2023-05-10T20:15:59.648Z,100536.59
2023-05-10T20:18:27.244Z,100536.09
2023-05-10T20:21:00.591Z,100532.91
2023-05-10T20:23:27.767Z,100536.84
2023-05-10T20:25:55.111Z,100537.31
2023-05-10T20:28:25.420Z,100535.66
2023-05-10T20:30:54.161Z,100533.31
2023-05-10T20:33:24.120Z,100542.38
2023-05-10T20:35:51.485Z,100534.78
2023-05-10T20:38:18.730Z,100529.97
2023-05-10T20:40:46.622Z,100526.94
2023-05-10T20:43:13.808Z,100527.78
2023-05-10T20:45:40.767Z,100533.88
2023-05-10T20:48:10.264Z,100536.66
2023-05-10T20:50:37.199Z,100529.50
2023-05-10T20:53:04.213Z,100531.97
2023-05-10T20:55:31.216Z,100534.75
2023-05-10T20:57:58.113Z,100535.06
2023-05-10T21:00:25.202Z,100532.44
2023-05-10T21:02:52.116Z,100532.56
2023-05-10T21:05:19.141Z,100527.63
2023-05-10T21:07:46.192Z,100532.22
2023-05-10T21:10:13.454Z,100532.38
2023-05-10T21:12:40.553Z,100534.19
2023-05-10T21:15:08.246Z,100529.88
2023-05-10T21:17:35.169Z,100528.22
2023-05-10T21:20:02.331Z,100532.13
2023-05-10T21:22:30.752Z,100524.56
2023-05-10T21:24:58.014Z,100531.78
2023-05-10T21:27:24.979Z,100527.63
2023-05-10T21:29:52.318Z,100523.34
2023-05-10T21:32:20.317Z,100530.41
2023-05-10T21:34:47.314Z,100527.09
2023-05-10T21:37:16.303Z,100529.84
2023-05-10T21:39:43.791Z,100526.66
2023-05-10T21:42:10.791Z,100542.44
2023-05-10T21:44:38.786Z,100536.53
2023-05-10T21:47:05.715Z,100535.03
2023-05-10T21:49:32.626Z,100533.50
2023-05-10T21:51:59.564Z,100535.63
2023-05-10T21:54:26.462Z,100529.81
2023-05-10T21:56:53.768Z,100537.03
2023-05-10T21:59:21.811Z,100540.63
2023-05-10T22:01:48.855Z,100538.28
2023-05-10T22:04:15.997Z,100540.91
2023-05-10T22:06:43.016Z,100540.09
2023-05-10T22:09:10.242Z,100539.56
2023-05-10T22:11:38.430Z,100542.47
2023-05-10T22:14:05.323Z,100544.44
2023-05-10T22:16:32.320Z,100539.47
2023-05-10T22:18:59.640Z,100540.72
2023-05-10T22:21:26.565Z,100536.59
2023-05-10T22:23:53.459Z,100540.19
2023-05-10T22:26:21.624Z,100536.19
2023-05-10T22:28:48.524Z,100531.38
2023-05-10T22:31:15.433Z,100539.97
2023-05-10T22:33:42.398Z,100537.63
2023-05-10T22:36:09.376Z,100527.56
2023-05-10T22:38:36.288Z,100540.53
2023-05-10T22:41:03.328Z,100544.13
2023-05-10T22:43:33.601Z,100543.31
2023-05-10T22:46:00.500Z,100536.53
2023-05-10T22:48:28.764Z,100541.66
2023-05-10T22:50:56.309Z,100539.97
2023-05-10T22:53:23.350Z,100540.81
2023-05-10T22:55:51.526Z,100540.81
2023-05-10T22:58:21.295Z,100546.22
2023-05-10T23:01:03.277Z,100545.22
2023-05-10T23:03:30.673Z,100542.59
2023-05-10T23:05:58.094Z,100537.22
2023-05-10T23:08:25.503Z,100538.34
2023-05-10T23:10:52.590Z,100546.75
2023-05-10T23:13:21.145Z,100538.19
2023-05-10T23:15:48.392Z,100542.47
2023-05-10T23:18:16.130Z,100544.28
2023-05-10T23:20:43.316Z,100545.38
2023-05-10T23:23:10.854Z,100548.84
2023-05-10T23:25:38.266Z,100547.19
2023-05-10T23:28:05.735Z,100550.91
2023-05-10T23:30:32.641Z,100544.47
2023-05-10T23:32:59.728Z,100547.75
2023-05-10T23:35:26.615Z,100553.00
2023-05-10T23:37:54.433Z,100544.47
2023-05-10T23:40:21.691Z,100555.94
2023-05-10T23:42:48.763Z,100553.59
2023-05-10T23:45:15.836Z,100551.38
2023-05-10T23:47:42.931Z,100554.84
2023-05-10T23:50:11.191Z,100553.34
2023-05-10T23:52:38.297Z,100556.91
2023-05-10T23:55:05.601Z,100548.38
2023-05-10T23:57:36.272Z,100553.63
